• Join FlightAware (Why Join?)
  • Login
  • US Flag 
09:03PM EDT


 

Airport Tracker/Info


-or-


 

Live Flight TrackerFlight Track Log ✈ N9286M ✈ 27-Jul-2013 ✈ KHFD - KHFD

Flight Track Log - Related Links

Times and Time Zones

All times are in EDT time to prevent confusion due to time zone crossing. See the N9286M flight status page for this flight to view local times or setup timezone preferences in your user account.

Time Position Orientation Groundspeed Altitude Reporting Facility
EDT Latitude Longitude Course Direction KTS MPH feet Rate Location/Type
10:58AM 41.7478 -72.6517 97° East 75 86 400  Level Boston Center
10:59AM 41.7458 -72.6292 97° East 83 96 1,100 660 Climbing Boston Center
11:00AM 41.7231 -72.6208 165° South 80 92 1,800 660 Climbing Boston Center
11:01AM 41.7022 -72.6097 158° South 81 93 2,500 300 Climbing Boston Center
11:02AM 41.6833 -72.5875 139° Southeast 91 105 2,500  Level Boston Center
11:03AM 41.6625 -72.5708 149° Southeast 89 102 2,600  Climbing Boston Center
11:04AM 41.6417 -72.5483 141° Southeast 92 106 2,500 -60 Descending Boston Center
11:05AM 41.6458 -72.5206 79° East 101 116 2,500  Level Boston Center
11:06AM 41.6731 -72.5289 347° North 94 108 2,600  Climbing Boston Center
11:07AM 41.6981 -72.5264 North 101 116 2,500 -60 Descending Boston Center
11:08AM 41.7272 -72.5236 North 104 120 2,500  Level Boston Center
11:09AM 41.7606 -72.5125 14° North 100 115 2,500  Level Boston Center
11:10AM 41.7878 -72.5069 North 99 114 2,500 -60 Level Boston Center
11:11AM 41.8086 -72.5181 338° Northwest 93 107 2,400 -240 Descending Boston Center
11:12AM 41.8231 -72.5403 311° West 91 105 2,100 -360 Descending Boston Center
11:13AM 41.8417 -72.5628 318° Northwest 96 110 1,800 -180 Descending Boston Center
11:14AM 41.8606 -72.5906 312° West 91 105 1,800 -180 Level Boston Center
11:15AM 41.8772 -72.6131 315° West 84 97 1,500 -360 Descending Boston Center
11:16AM 41.8917 -72.6353 311° West 82 94 1,100 -480 Descending Boston Center
11:17AM 41.9125 -72.6606 318° Northwest 90 104 600  Descending Boston Center
11:18AM 41.9250 -72.6467 40° Northeast 84 97 1,200 540 Climbing Boston Center
11:19AM 41.9292 -72.6131 81° East 87 100 1,800 480 Climbing Boston Center
11:20AM 41.9106 -72.6019 156° South 82 94 2,200 480 Climbing Boston Center
11:21AM 41.8897 -72.5906 158° South 83 96 2,800 360 Climbing Boston Center
11:22AM 41.8647 -72.5767 158° South 91 105 3,000  Climbing Boston Center
11:24AM 41.8397 -72.5683 166° South 96 110 2,900  Descending Boston Center
11:25AM 41.8125 -72.5653 175° South 89 102 3,000  Climbing Boston Center
11:26AM 41.7917 -72.5653 180° South 72 83 3,000  Level Boston Center
11:27AM 41.7606 -72.5597 172° South 113 130 3,000 -60 Level Boston Center
11:28AM 41.7356 -72.5569 175° South 90 104 2,900  Descending Boston Center
11:29AM 41.7106 -72.5625 189° South 82 94 3,000  Climbing Boston Center
11:30AM 41.6875 -72.5569 170° South 88 101 3,000 -60 Level Boston Center
11:31AM 41.6625 -72.5542 175° South 97 112 2,900 -60 Descending Boston Center
11:32AM 41.6375 -72.5511 175° South 96 110 2,900  Level Boston Center
11:33AM 41.6208 -72.5289 135° Southeast 91 105 2,900  Level Boston Center
11:34AM 41.6064 -72.5039 128° Southeast 85 98 3,000  Climbing Boston Center
11:35AM 41.6083 -72.4761 85° East 105 121 3,000  Level Boston Center
11:36AM 41.6231 -72.4983 312° West 89 102 3,000  Level Boston Center
11:37AM 41.6272 -72.5289 280° West 89 102 3,000  Level Boston Center
11:38AM 41.6397 -72.5483 311° West 98 113 3,000  Level Boston Center
11:39AM 41.6542 -72.5317 41° Northeast 93 107 3,000  Level Boston Center
11:40AM 41.6375 -72.5011 126° Southeast 98 113 3,000 -60 Level Boston Center
11:41AM 41.6272 -72.5206 235° Southwest 87 100 2,900  Descending Boston Center
11:42AM 41.6375 -72.5483 296° West 103 119 3,000  Climbing Boston Center
11:43AM 41.6500 -72.5289 49° Northeast 99 114 3,000  Level Boston Center
11:44AM 41.6292 -72.5094 145° Southeast 83 96 3,000  Level Boston Center
11:45AM 41.6042 -72.5067 175° South 98 113 3,000  Level Boston Center
11:46AM 41.5792 -72.5067 180° South 86 99 3,000  Level Boston Center
11:47AM 41.6000 -72.5289 321° Northwest 101 116 3,000 -60 Level Boston Center
11:48AM 41.6250 -72.5372 346° North 100 115 2,900 -360 Descending Boston Center
11:49AM 41.6481 -72.5594 324° Northwest 98 113 2,300 -720 Descending Boston Center
11:50AM 41.6667 -72.5817 318° Northwest 91 105 1,500 -600 Descending Boston Center
11:51AM 41.6856 -72.6014 322° Northwest 94 108 1,200 -300 Descending Boston Center
11:52AM 41.7042 -72.6264 315° West 93 107 1,000 -180 Descending Boston Center
11:53AM 41.7269 -72.6319 350° North 102 117 900 240 Descending Boston Center
11:54AM 41.7356 -72.5958 72° East 89 102 1,500 540 Climbing Boston Center